Time;durP1;ratioP1;P1;durP2;ratioP2;P2;SDS_P1;SDS_P2;PMS_P1;PMS_P2;Temp;Humidity;BMP_temperature;BMP_pressure;BME280_temperature;BME280_humidity;BME280_pressure;Samples;Min_cycle;Max_cycle;Signal;HPM_P1;HPM_P2
2023/06/03 00:00:21;;;;;;;9.88;3.03;;;;;;;13.60;70.35;101859.69;4933185;29;20119;-43
2023/06/03 00:02:49;;;;;;;8.18;2.60;;;;;;;13.59;70.33;101860.00;4932133;29;20051;-45
2023/06/03 00:05:17;;;;;;;4.95;2.80;;;;;;;13.54;70.64;101847.13;4935254;29;20039;-43
2023/06/03 00:07:45;;;;;;;9.43;3.25;;;;;;;13.49;70.93;101850.09;4951604;29;20051;-43
2023/06/03 00:10:13;;;;;;;8.23;3.08;;;;;;;13.45;70.89;101842.78;4951402;29;20055;-44
2023/06/03 00:12:45;;;;;;;5.88;2.92;;;;;;;13.42;71.07;101838.69;4951124;29;20429;-48
2023/06/03 00:15:12;;;;;;;4.88;2.75;;;;;;;13.41;70.95;101839.84;4951293;29;20112;-44
2023/06/03 00:17:39;;;;;;;8.43;4.20;;;;;;;13.39;70.87;101853.28;4941495;29;20036;-46
2023/06/03 00:20:06;;;;;;;5.18;3.10;;;;;;;13.33;71.14;101846.28;4932281;29;20082;-44
2023/06/03 00:22:35;;;;;;;5.22;2.55;;;;;;;13.27;71.15;101842.88;4931085;29;20580;-46
2023/06/03 00:25:03;;;;;;;8.25;3.00;;;;;;;13.26;71.13;101844.00;4931940;29;20232;-43
2023/06/03 00:27:30;;;;;;;8.45;3.50;;;;;;;13.22;71.16;101845.84;4932068;29;20383;-46
2023/06/03 00:29:57;;;;;;;5.07;2.42;;;;;;;13.20;71.19;101844.56;4915278;29;20048;-45
2023/06/03 00:32:23;;;;;;;8.18;3.17;;;;;;;13.18;71.21;101839.34;4933038;29;20047;-45
2023/06/03 00:34:50;;;;;;;8.95;3.00;;;;;;;13.16;71.31;101832.47;4938316;29;20051;-43
2023/06/03 00:37:17;;;;;;;9.85;3.05;;;;;;;13.13;71.15;101833.16;4949449;29;20150;-45
2023/06/03 00:39:44;;;;;;;8.02;2.90;;;;;;;13.09;71.34;101829.41;4948703;29;20055;-44
2023/06/03 00:42:11;;;;;;;4.80;3.28;;;;;;;13.08;71.29;101838.91;4933326;28;20490;-43
2023/06/03 00:44:38;;;;;;;6.43;2.80;;;;;;;13.04;71.46;101837.91;4937531;29;20428;-43
2023/06/03 00:47:06;;;;;;;7.68;3.45;;;;;;;13.02;71.33;101835.47;4954677;29;20386;-44
2023/06/03 00:49:34;;;;;;;7.82;3.53;;;;;;;12.99;71.36;101838.09;4954658;29;20055;-46
2023/06/03 00:52:05;;;;;;;10.85;3.45;;;;;;;12.96;71.51;101836.00;4953769;29;20051;-44
2023/06/03 00:54:32;;;;;;;7.53;3.63;;;;;;;12.91;71.60;101842.56;4954537;29;20051;-43
2023/06/03 00:57:02;;;;;;;4.40;3.60;;;;;;;12.89;71.66;101846.81;4954339;29;20066;-48
2023/06/03 00:59:29;;;;;;;5.40;3.55;;;;;;;12.86;71.73;101836.38;4954268;29;20053;-43
2023/06/03 01:01:56;;;;;;;6.65;3.45;;;;;;;12.81;71.69;101840.94;4954243;29;20051;-49
2023/06/03 01:04:25;;;;;;;5.90;3.65;;;;;;;12.79;71.84;101848.00;4954483;29;20051;-44
2023/06/03 01:07:06;;;;;;;7.35;3.75;;;;;;;12.78;71.86;101840.81;4953171;29;20055;-45
2023/06/03 01:09:41;;;;;;;11.95;4.45;;;;;;;12.75;71.79;101845.09;4953515;29;20390;-45
2023/06/03 01:12:38;;;;;;;7.95;4.43;;;;;;;12.69;71.97;101848.38;4954180;28;20395;-44
2023/06/03 01:15:14;;;;;;;8.65;3.97;;;;;;;12.66;72.05;101847.06;4954345;29;20498;-45
2023/06/03 01:17:47;;;;;;;10.93;4.68;;;;;;;12.64;71.96;101857.72;4954204;29;20578;-43
2023/06/03 01:20:16;;;;;;;13.32;5.00;;;;;;;12.60;72.26;101848.38;4953993;29;20095;-44
2023/06/03 01:22:44;;;;;;;8.50;5.28;;;;;;;12.57;72.32;101846.31;4954483;29;20190;-43
2023/06/03 01:25:15;;;;;;;15.75;6.45;;;;;;;12.58;72.27;101842.34;4953018;29;20071;-46
2023/06/03 01:27:45;;;;;;;9.95;5.50;;;;;;;12.54;72.26;101846.97;4954143;29;20118;-44
2023/06/03 01:30:15;;;;;;;7.68;4.30;;;;;;;12.53;72.05;101845.31;4954021;28;20106;-43
2023/06/03 01:32:44;;;;;;;26.38;6.00;;;;;;;12.50;72.25;101840.41;4953915;29;20047;-44
2023/06/03 01:35:12;;;;;;;5.85;4.30;;;;;;;12.49;72.49;101849.09;4952332;28;20051;-43
2023/06/03 01:37:40;;;;;;;12.52;5.00;;;;;;;12.47;72.40;101849.41;4953122;29;20118;-50
2023/06/03 01:40:08;;;;;;;10.10;4.10;;;;;;;12.44;72.50;101847.31;4941147;29;20493;-43
2023/06/03 01:42:36;;;;;;;12.85;4.78;;;;;;;12.44;72.58;101847.31;4952597;28;20047;-44
2023/06/03 01:45:04;;;;;;;6.90;3.92;;;;;;;12.42;72.69;101852.38;4953866;29;20047;-43
2023/06/03 01:47:31;;;;;;;10.73;5.10;;;;;;;12.41;72.67;101852.72;4953732;29;20505;-44
2023/06/03 01:49:59;;;;;;;6.20;3.88;;;;;;;12.39;72.67;101847.47;4953839;29;20053;-44
2023/06/03 01:52:26;;;;;;;12.90;4.85;;;;;;;12.36;72.62;101834.28;4953859;29;20047;-45
2023/06/03 01:54:53;;;;;;;6.93;2.92;;;;;;;12.33;72.77;101832.16;4952639;28;20066;-43
2023/06/03 01:57:20;;;;;;;6.55;3.75;;;;;;;12.30;72.98;101830.03;4953325;28;20102;-44
2023/06/03 01:59:47;;;;;;;10.60;3.47;;;;;;;12.30;73.07;101834.78;4952704;29;20054;-43
2023/06/03 02:02:14;;;;;;;5.07;3.40;;;;;;;12.30;73.04;101841.16;4953236;28;20061;-44
2023/06/03 02:04:44;;;;;;;8.00;3.72;;;;;;;12.29;73.04;101825.63;4953886;28;20062;-46
2023/06/03 02:07:11;;;;;;;6.78;3.17;;;;;;;12.29;72.95;101822.03;4951914;29;20055;-44
2023/06/03 02:09:39;;;;;;;6.22;3.03;;;;;;;12.30;72.99;101827.25;4953283;29;20059;-43
2023/06/03 02:12:07;;;;;;;5.85;2.67;;;;;;;12.31;73.17;101828.09;4953142;29;20157;-47
2023/06/03 02:14:34;;;;;;;7.82;3.33;;;;;;;12.30;73.18;101824.47;4952091;29;20473;-46
2023/06/03 02:17:01;;;;;;;9.68;3.10;;;;;;;12.33;73.10;101820.22;4952457;29;20047;-43
2023/06/03 02:19:30;;;;;;;20.45;5.75;;;;;;;12.33;73.03;101823.00;4953500;29;20102;-43
2023/06/03 02:21:57;;;;;;;5.25;2.67;;;;;;;12.33;73.21;101829.38;4953287;29;20055;-47
2023/06/03 02:24:28;;;;;;;4.38;3.10;;;;;;;12.32;73.24;101833.28;4953105;29;20043;-45
2023/06/03 02:27:00;;;;;;;8.18;2.95;;;;;;;12.34;73.29;101836.53;4951777;29;20544;-43
2023/06/03 02:29:29;;;;;;;7.50;3.13;;;;;;;12.35;73.18;101826.25;4953421;29;20074;-43
2023/06/03 02:31:57;;;;;;;5.03;3.03;;;;;;;12.34;73.29;101833.75;4952779;29;20051;-44
2023/06/03 02:34:25;;;;;;;6.93;3.05;;;;;;;12.35;73.37;101843.75;4950078;29;20337;-46
2023/06/03 02:36:52;;;;;;;10.60;3.00;;;;;;;12.36;73.56;101839.00;4951255;28;20071;-49
2023/06/03 02:39:20;;;;;;;6.82;2.90;;;;;;;12.39;73.25;101850.25;4952963;29;20054;-44
2023/06/03 02:41:48;;;;;;;8.93;2.95;;;;;;;12.34;73.30;101844.88;4952637;29;20059;-44
2023/06/03 02:44:16;;;;;;;3.97;2.50;;;;;;;12.30;73.41;101843.91;4952740;29;20047;-45
2023/06/03 02:46:44;;;;;;;9.52;3.90;;;;;;;12.27;73.52;101838.19;4953081;29;20058;-43
2023/06/03 02:49:12;;;;;;;6.82;2.65;;;;;;;12.24;73.83;101842.44;4952449;29;20043;-43
2023/06/03 02:51:42;;;;;;;4.88;3.15;;;;;;;12.18;73.94;101833.47;4951557;29;20525;-44
2023/06/03 02:54:09;;;;;;;5.68;2.90;;;;;;;12.15;74.05;101838.91;4950570;29;20039;-46
2023/06/03 02:56:36;;;;;;;5.68;3.13;;;;;;;12.14;74.25;101835.28;4952628;29;20051;-48
2023/06/03 02:59:05;;;;;;;6.18;3.15;;;;;;;12.09;74.29;101834.66;4952401;29;20106;-48
2023/06/03 03:01:32;;;;;;;7.57;3.90;;;;;;;12.08;74.35;101838.56;4983081;23;20082;-45
2023/06/03 03:03:59;;;;;;;6.28;3.33;;;;;;;12.04;74.33;101834.81;4948941;29;20035;-47
2023/06/03 03:06:26;;;;;;;7.63;3.22;;;;;;;12.02;74.30;101834.34;4950021;28;20496;-43
2023/06/03 03:08:54;;;;;;;5.10;3.15;;;;;;;12.00;74.41;101836.59;4949258;29;20035;-43
2023/06/03 03:11:24;;;;;;;4.47;2.85;;;;;;;11.95;74.48;101825.69;4952258;29;20134;-43
2023/06/03 03:13:51;;;;;;;3.97;3.08;;;;;;;11.93;74.66;101837.13;4952052;29;20463;-44
2023/06/03 03:16:19;;;;;;;9.07;3.40;;;;;;;11.90;74.56;101831.41;4952223;29;20062;-44
2023/06/03 03:18:46;;;;;;;7.38;3.60;;;;;;;11.85;74.87;101826.03;4952230;29;20054;-43
2023/06/03 03:21:14;;;;;;;6.97;2.78;;;;;;;11.79;75.00;101824.53;4952129;29;20039;-45
2023/06/03 03:23:41;;;;;;;7.90;3.53;;;;;;;11.77;75.09;101827.66;4934132;29;20458;-45
2023/06/03 03:26:11;;;;;;;6.55;3.08;;;;;;;11.78;75.19;101828.47;4952195;29;20047;-44
2023/06/03 03:28:38;;;;;;;6.75;3.70;;;;;;;11.74;75.05;101824.72;4951797;29;20072;-44
2023/06/03 03:31:09;;;;;;;9.75;3.97;;;;;;;11.72;75.36;101825.06;4951909;29;20492;-45
2023/06/03 03:33:36;;;;;;;5.88;3.22;;;;;;;11.68;75.38;101831.53;4951775;29;20465;-45
2023/06/03 03:36:11;;;;;;;9.65;3.60;;;;;;;11.65;75.31;101830.22;4950570;29;20051;-44
2023/06/03 03:38:38;;;;;;;7.55;3.50;;;;;;;11.65;75.23;101829.44;4951088;29;20058;-50
2023/06/03 03:41:08;;;;;;;4.72;3.00;;;;;;;11.63;75.41;101830.56;4946348;29;20421;-44
2023/06/03 03:43:35;;;;;;;9.57;3.97;;;;;;;11.62;75.39;101826.16;4951486;29;20446;-45
2023/06/03 03:46:02;;;;;;;6.80;3.75;;;;;;;11.58;75.60;101819.63;4951445;29;20409;-44
2023/06/03 03:48:30;;;;;;;5.18;3.60;;;;;;;11.51;75.54;101824.03;4951801;29;20047;-44
2023/06/03 03:50:57;;;;;;;7.15;3.17;;;;;;;11.49;75.69;101821.56;4951795;29;20090;-46
2023/06/03 03:53:33;;;;;;;6.47;3.15;;;;;;;11.49;75.62;101821.56;4951680;29;20054;-44
2023/06/03 03:56:01;;;;;;;8.57;3.65;;;;;;;11.47;75.63;101821.09;4950354;29;20047;-45
2023/06/03 03:58:44;;;;;;;8.30;2.97;;;;;;;11.45;75.77;101825.31;4950452;29;20055;-51
2023/06/03 04:01:17;;;;;;;8.10;3.00;;;;;;;11.44;75.67;101830.06;4938599;29;20051;-44
2023/06/03 04:03:47;;;;;;;5.78;3.47;;;;;;;11.42;75.67;101820.44;4951585;29;20050;-44
2023/06/03 04:06:24;;;;;;;5.72;3.22;;;;;;;11.38;75.74;101820.28;4950113;29;20576;-45
2023/06/03 04:08:52;;;;;;;4.25;3.03;;;;;;;11.38;75.91;101811.13;4951506;28;20043;-45
2023/06/03 04:11:19;;;;;;;9.00;3.15;;;;;;;11.40;75.83;101812.44;4951432;29;20050;-45
2023/06/03 04:13:46;;;;;;;7.43;3.67;;;;;;;11.42;75.83;101815.69;4951030;29;20078;-45
2023/06/03 04:16:47;;;;;;;6.40;3.53;;;;;;;11.43;75.95;101824.84;4933513;29;20508;-44
2023/06/03 04:19:30;;;;;;;6.00;3.17;;;;;;;11.44;75.58;101807.88;4950830;29;20063;-45
2023/06/03 04:21:59;;;;;;;4.93;3.17;;;;;;;11.45;76.02;101815.06;4951131;29;20102;-44
2023/06/03 04:24:26;;;;;;;9.60;3.60;;;;;;;11.43;75.65;101810.97;4951063;29;20043;-44
2023/06/03 04:26:53;;;;;;;11.35;4.72;;;;;;;11.44;75.84;101824.50;4951113;29;20589;-44
2023/06/03 04:29:20;;;;;;;6.03;3.95;;;;;;;11.43;75.81;101817.34;4951303;29;20051;-46
2023/06/03 04:31:47;;;;;;;6.63;3.05;;;;;;;11.44;75.97;101815.38;4947913;29;20107;-45
2023/06/03 04:34:14;;;;;;;5.65;3.35;;;;;;;11.46;75.98;101830.53;4945746;28;20051;-44
2023/06/03 04:36:41;;;;;;;5.45;3.20;;;;;;;11.50;75.91;101822.41;4951352;29;20052;-44
2023/06/03 04:39:08;;;;;;;7.45;3.92;;;;;;;11.50;75.98;101811.28;4951229;29;20047;-48
2023/06/03 04:41:38;;;;;;;6.55;3.08;;;;;;;11.53;76.00;101816.19;4950755;29;20453;-44
2023/06/03 04:44:08;;;;;;;7.65;3.45;;;;;;;11.56;75.96;101826.66;4951108;29;20401;-47
2023/06/03 04:46:35;;;;;;;6.13;3.33;;;;;;;11.58;75.96;101819.63;4950951;29;20134;-44
2023/06/03 04:49:02;;;;;;;6.22;3.60;;;;;;;11.60;76.00;101820.13;4950157;29;20129;-44
2023/06/03 04:51:35;;;;;;;6.70;3.25;;;;;;;11.65;76.05;101823.88;4938657;29;20047;-44
2023/06/03 04:54:03;;;;;;;6.07;3.60;;;;;;;11.67;76.15;101827.13;4950770;29;20055;-46
2023/06/03 04:56:30;;;;;;;6.32;4.20;;;;;;;11.70;76.10;101821.78;4950937;29;20073;-44
2023/06/03 04:59:00;;;;;;;7.32;3.72;;;;;;;11.76;76.17;101830.75;4950942;29;20043;-44
2023/06/03 05:01:27;;;;;;;5.95;3.63;;;;;;;11.77;76.11;101822.09;4950630;29;20454;-45
2023/06/03 05:03:55;;;;;;;4.95;3.83;;;;;;;11.79;76.24;101819.81;4932702;29;20114;-44
2023/06/03 05:06:23;;;;;;;6.25;4.18;;;;;;;11.83;76.40;101825.53;4947188;29;20047;-44
2023/06/03 05:08:51;;;;;;;9.15;3.63;;;;;;;11.87;76.32;101826.50;4950506;29;20044;-48
2023/06/03 05:11:18;;;;;;;10.80;4.10;;;;;;;11.90;76.51;101823.91;4933656;29;20054;-44
2023/06/03 05:13:45;;;;;;;11.38;4.93;;;;;;;11.95;76.43;101822.91;4950826;29;20047;-44
2023/06/03 05:16:13;;;;;;;10.88;4.63;;;;;;;11.96;76.56;101825.38;4950702;29;20115;-45
2023/06/03 05:18:40;;;;;;;8.57;4.25;;;;;;;11.99;76.61;101827.47;4950162;29;20051;-46
2023/06/03 05:21:07;;;;;;;10.75;4.63;;;;;;;12.04;76.68;101829.28;4950640;29;20525;-44
2023/06/03 05:23:34;;;;;;;8.40;4.60;;;;;;;12.07;77.05;101831.41;4949792;29;20051;-44
2023/06/03 05:26:02;;;;;;;8.70;4.28;;;;;;;12.08;76.89;101833.00;4950715;29;20051;-48
2023/06/03 05:28:30;;;;;;;15.10;4.40;;;;;;;12.13;77.06;101827.28;4951308;28;20393;-44
2023/06/03 05:30:57;;;;;;;10.82;4.90;;;;;;;12.16;76.96;101824.66;4954426;29;20043;-50
2023/06/03 05:33:29;;;;;;;8.77;5.10;;;;;;;12.20;77.21;101824.84;4953782;29;20090;-44
2023/06/03 05:35:56;;;;;;;6.80;4.35;;;;;;;12.25;77.39;101824.66;4951371;28;20054;-44
2023/06/03 05:38:24;;;;;;;9.35;4.35;;;;;;;12.30;77.53;101832.81;4953494;29;20485;-44
2023/06/03 05:40:51;;;;;;;9.55;4.60;;;;;;;12.36;77.80;101827.91;4952895;29;20077;-45
2023/06/03 05:43:18;;;;;;;12.77;5.07;;;;;;;12.38;77.77;101820.88;4953483;29;20046;-48
2023/06/03 05:45:46;;;;;;;7.68;4.63;;;;;;;12.44;77.95;101841.78;4953926;29;20103;-45
2023/06/03 05:48:13;;;;;;;7.25;3.63;;;;;;;12.51;78.04;101835.69;4953462;29;20069;-45
2023/06/03 05:50:51;;;;;;;5.85;3.58;;;;;;;12.59;78.04;101843.19;4954004;29;20082;-44
2023/06/03 05:53:21;;;;;;;8.07;3.70;;;;;;;12.65;78.12;101836.31;4953274;29;20062;-44
2023/06/03 05:55:49;;;;;;;6.90;3.88;;;;;;;12.72;78.21;101842.97;4953593;28;20545;-44
2023/06/03 05:58:20;;;;;;;14.77;4.32;;;;;;;12.79;78.49;101836.88;4952661;29;20054;-45
2023/06/03 06:00:48;;;;;;;9.02;4.20;;;;;;;12.89;78.63;101841.28;4953290;28;20043;-47
2023/06/03 06:03:16;;;;;;;13.52;4.63;;;;;;;12.97;78.71;101832.06;4953328;29;20083;-44
2023/06/03 06:05:45;;;;;;;11.68;3.92;;;;;;;13.04;78.96;101837.91;4951546;29;20035;-44
2023/06/03 06:08:12;;;;;;;9.45;4.20;;;;;;;13.13;79.40;101831.19;4953326;29;20401;-46
2023/06/03 06:10:40;;;;;;;10.95;4.35;;;;;;;13.22;79.51;101829.16;4953270;28;20058;-45
2023/06/03 06:13:07;;;;;;;15.77;4.47;;;;;;;13.30;79.78;101838.59;4953440;29;20126;-45
2023/06/03 06:15:34;;;;;;;9.63;3.95;;;;;;;13.37;79.99;101830.53;4952110;29;20047;-45
2023/06/03 06:18:03;;;;;;;4.90;3.85;;;;;;;13.45;80.21;101834.44;4953488;29;20063;-45
2023/06/03 06:20:30;;;;;;;12.48;3.95;;;;;;;13.51;80.29;101831.09;4953364;29;20047;-45
2023/06/03 06:22:57;;;;;;;8.85;3.97;;;;;;;13.59;80.47;101833.00;4953576;29;20043;-45
2023/06/03 06:25:24;;;;;;;10.93;6.43;;;;;;;13.64;80.72;101841.13;4953204;29;20126;-44
2023/06/03 06:27:51;;;;;;;13.10;4.30;;;;;;;13.70;80.98;101844.53;4953312;29;20473;-45
2023/06/03 06:30:19;;;;;;;9.00;3.92;;;;;;;13.74;81.03;101845.50;4952740;29;20501;-45
2023/06/03 06:32:51;;;;;;;10.02;4.65;;;;;;;13.79;81.22;101846.09;4957112;28;20039;-45
2023/06/03 06:35:18;;;;;;;;;;;;;;;13.81;81.19;101838.22;4952356;28;20054;-44
2023/06/03 06:37:46;;;;;;;11.68;4.13;;;;;;;13.85;81.17;101853.09;4952340;29;20307;-45
2023/06/03 06:40:19;;;;;;;10.23;4.22;;;;;;;13.89;81.22;101842.91;4940905;28;20048;-46
2023/06/03 06:42:47;;;;;;;11.82;4.72;;;;;;;13.94;81.41;101851.06;4952538;29;20505;-45
2023/06/03 06:45:26;;;;;;;15.77;4.55;;;;;;;13.99;81.41;101850.03;4952897;28;20144;-46
2023/06/03 06:48:12;;;;;;;12.73;3.78;;;;;;;14.03;81.73;101846.19;4951885;29;20039;-45
2023/06/03 06:50:55;;;;;;;8.77;5.25;;;;;;;14.09;81.82;101844.03;4952587;29;20110;-45
2023/06/03 06:53:26;;;;;;;11.23;4.32;;;;;;;14.18;82.08;101849.50;4950996;29;20102;-50
2023/06/03 06:55:59;;;;;;;15.82;4.78;;;;;;;14.27;82.20;101848.25;4952576;29;20043;-44
2023/06/03 06:58:35;;;;;;;12.18;4.30;;;;;;;14.38;82.29;101843.09;4952512;29;20130;-44
2023/06/03 07:01:05;;;;;;;10.50;4.75;;;;;;;14.46;82.47;101850.56;4952268;29;20044;-44
2023/06/03 07:03:35;;;;;;;12.27;6.35;;;;;;;14.54;82.43;101846.84;4951621;29;20114;-45
2023/06/03 07:06:02;;;;;;;9.35;3.65;;;;;;;14.63;82.30;101855.94;4940771;29;20489;-46
2023/06/03 07:08:29;;;;;;;9.35;3.25;;;;;;;14.73;82.63;101843.53;4952246;29;20047;-45
2023/06/03 07:10:59;;;;;;;11.82;4.18;;;;;;;14.83;82.86;101855.03;4952541;29;20185;-45
2023/06/03 07:13:29;;;;;;;10.80;4.10;;;;;;;14.92;83.32;101850.19;4952217;29;20063;-47
2023/06/03 07:15:56;;;;;;;12.40;4.68;;;;;;;15.01;83.76;101853.66;4952515;29;20047;-44
2023/06/03 07:18:25;;;;;;;5.95;3.40;;;;;;;15.14;84.43;101857.28;4952763;28;20136;-46
2023/06/03 07:20:53;;;;;;;9.13;4.07;;;;;;;15.25;84.93;101856.44;4934836;29;20051;-46
2023/06/03 07:23:24;;;;;;;9.23;3.47;;;;;;;15.37;85.50;101857.59;4949824;29;20047;-45
2023/06/03 07:25:52;;;;;;;10.75;4.40;;;;;;;15.48;86.38;101854.00;4951438;29;20058;-46
2023/06/03 07:28:25;;;;;;;16.40;3.92;;;;;;;15.61;87.54;101858.41;4951949;29;20051;-44
2023/06/03 07:30:52;;;;;;;8.45;3.50;;;;;;;15.77;88.47;101862.09;4950142;28;20043;-45
2023/06/03 07:33:29;;;;;;;9.93;3.35;;;;;;;16.01;89.25;101860.38;4934828;29;20051;-45
2023/06/03 07:36:02;;;;;;;11.88;3.33;;;;;;;16.24;90.44;101856.66;4947472;28;20420;-45
2023/06/03 07:38:38;;;;;;;8.63;3.13;;;;;;;16.54;91.54;101861.91;4950862;28;20077;-49
2023/06/03 07:41:05;;;;;;;9.07;3.90;;;;;;;16.84;93.15;101866.69;4951619;29;20150;-47
2023/06/03 07:43:34;;;;;;;8.75;2.97;;;;;;;17.21;93.96;101864.41;4952010;28;20051;-45
2023/06/03 07:46:06;;;;;;;8.38;3.50;;;;;;;17.66;93.69;101871.50;4951639;29;20142;-48
2023/06/03 07:48:37;;;;;;;11.50;3.78;;;;;;;18.14;92.75;101873.72;4951462;29;20389;-46
2023/06/03 07:51:07;;;;;;;8.40;2.88;;;;;;;18.70;90.29;101872.06;4951129;29;20062;-46
2023/06/03 07:53:39;;;;;;;11.45;3.92;;;;;;;19.39;86.40;101878.47;4950857;28;20047;-45
2023/06/03 07:56:12;;;;;;;13.80;3.13;;;;;;;20.11;81.85;101875.47;4933422;29;20105;-43
2023/06/03 07:58:39;;;;;;;10.68;3.08;;;;;;;20.75;77.77;101888.28;4951605;29;20047;-44
2023/06/03 08:01:06;;;;;;;11.05;2.92;;;;;;;21.31;73.17;101894.47;4950927;29;20512;-46
2023/06/03 08:03:34;;;;;;;7.28;2.08;;;;;;;21.85;69.79;101900.03;4951628;29;20070;-42
2023/06/03 08:06:01;;;;;;;6.55;2.20;;;;;;;22.44;66.93;101900.72;4949571;29;20120;-45
2023/06/03 08:08:33;;;;;;;7.50;2.75;;;;;;;22.82;63.87;101894.38;4951009;29;20051;-43
2023/06/03 08:11:01;;;;;;;7.07;2.40;;;;;;;23.26;61.72;101891.19;4951405;29;20086;-45
2023/06/03 08:13:29;;;;;;;6.85;2.90;;;;;;;23.49;59.52;101891.59;4950172;29;20047;-44
2023/06/03 08:15:56;;;;;;;9.23;2.88;;;;;;;23.69;58.27;101902.47;4951437;29;20043;-46
2023/06/03 08:18:37;;;;;;;8.10;3.03;;;;;;;23.84;57.25;101898.41;4951796;29;20043;-43
2023/06/03 08:21:04;;;;;;;8.57;2.30;;;;;;;24.03;55.53;101895.94;4951570;29;20055;-48
2023/06/03 08:23:32;;;;;;;8.85;2.78;;;;;;;24.21;54.52;101905.19;4951045;29;20037;-45
2023/06/03 08:26:00;;;;;;;5.85;2.30;;;;;;;24.33;53.50;101906.72;4951127;29;20047;-48
2023/06/03 08:28:27;;;;;;;10.55;2.50;;;;;;;24.48;52.60;101911.13;4951185;29;20047;-51
2023/06/03 08:30:54;;;;;;;5.70;2.40;;;;;;;24.63;51.63;101909.00;4949385;29;20401;-48
2023/06/03 08:33:21;;;;;;;9.68;2.28;;;;;;;24.87;50.87;101901.59;4950364;28;20043;-44
2023/06/03 08:35:48;;;;;;;7.88;2.20;;;;;;;25.02;50.09;101905.97;4950890;29;20054;-43
2023/06/03 08:38:16;;;;;;;10.48;2.42;;;;;;;25.21;49.61;101903.34;4951180;29;20051;-43
2023/06/03 08:40:49;;;;;;;6.10;2.08;;;;;;;25.33;49.34;101899.22;4951027;29;20051;-43
2023/06/03 08:43:17;;;;;;;9.18;3.08;;;;;;;25.36;48.15;101906.88;4950460;29;20055;-44
2023/06/03 08:46:01;;;;;;;8.95;3.30;;;;;;;25.38;48.06;101901.59;4951274;29;20513;-43
2023/06/03 08:48:58;;;;;;;6.05;1.85;;;;;;;25.39;47.74;101900.34;4940467;29;20047;-43
2023/06/03 08:51:25;;;;;;;8.98;3.03;;;;;;;25.62;47.17;101899.78;4951506;29;20039;-43
2023/06/03 08:53:52;;;;;;;9.82;2.70;;;;;;;25.69;45.91;101906.19;4951035;29;20051;-44
2023/06/03 08:56:21;;;;;;;9.65;2.75;;;;;;;25.83;45.25;101900.38;4950676;29;20113;-48
2023/06/03 08:58:56;;;;;;;5.63;2.35;;;;;;;25.89;45.14;101904.31;4951063;29;20515;-43
2023/06/03 09:01:29;;;;;;;7.22;2.83;;;;;;;25.98;43.96;101893.28;4945273;29;20055;-43
2023/06/03 09:03:57;;;;;;;4.55;2.17;;;;;;;26.03;43.77;101898.50;4950946;28;20058;-44
2023/06/03 09:06:24;;;;;;;7.30;2.10;;;;;;;26.15;42.98;101899.22;4954421;29;20405;-43
2023/06/03 09:08:53;;;;;;;12.90;2.38;;;;;;;26.27;42.21;101902.28;4954509;29;20055;-43
2023/06/03 09:11:22;;;;;;;6.60;1.80;;;;;;;26.45;41.54;101887.88;4954480;29;20130;-46
2023/06/03 09:13:50;;;;;;;6.90;2.13;;;;;;;26.54;40.61;101905.16;4954175;29;20441;-51
2023/06/03 09:16:18;;;;;;;6.53;2.45;;;;;;;26.27;39.90;101890.94;4954448;29;20047;-44
2023/06/03 09:18:48;;;;;;;7.43;2.15;;;;;;;26.26;39.39;101895.00;4954217;29;20043;-43
2023/06/03 09:21:15;;;;;;;5.15;1.75;;;;;;;26.25;39.18;101904.75;4936085;29;20501;-47
2023/06/03 09:23:43;;;;;;;4.65;2.13;;;;;;;26.36;38.83;101893.25;4954077;29;20074;-44
2023/06/03 09:26:11;;;;;;;10.13;2.33;;;;;;;26.25;38.43;101901.09;4954453;29;20731;-43
2023/06/03 09:28:38;;;;;;;7.38;2.10;;;;;;;26.14;37.75;101895.56;4953947;29;20043;-42
2023/06/03 09:31:05;;;;;;;5.25;1.77;;;;;;;26.13;37.83;101890.31;4935400;29;20051;-44
2023/06/03 09:33:32;;;;;;;10.05;3.13;;;;;;;26.15;36.98;101899.22;4953447;29;20126;-44
2023/06/03 09:36:13;;;;;;;9.60;1.88;;;;;;;26.16;37.19;101889.47;4948740;28;20053;-44
2023/06/03 09:38:54;;;;;;;6.28;1.75;;;;;;;26.28;36.89;101886.88;4946871;29;20043;-43
2023/06/03 09:41:26;;;;;;;6.30;1.63;;;;;;;26.57;36.25;101888.09;4953880;29;20047;-43
2023/06/03 09:44:05;;;;;;;4.97;1.55;;;;;;;26.77;36.12;101891.06;4951783;29;20051;-48
2023/06/03 09:46:33;;;;;;;7.35;1.55;;;;;;;26.93;36.30;101899.75;4953512;28;20134;-45
2023/06/03 09:49:16;;;;;;;2.50;1.45;;;;;;;26.97;35.20;101894.00;4953673;29;20074;-44
2023/06/03 09:52:09;;;;;;;6.13;2.30;;;;;;;26.89;34.67;101892.50;4945435;29;20497;-44
2023/06/03 09:54:37;;;;;;;3.13;1.25;;;;;;;26.86;33.64;101894.19;4952690;28;20181;-46
2023/06/03 09:57:12;;;;;;;8.63;1.80;;;;;;;26.63;33.75;101894.88;4953779;29;20051;-52
2023/06/03 09:59:43;;;;;;;6.47;2.03;;;;;;;26.39;33.31;101898.09;4953715;29;20039;-47
2023/06/03 10:02:14;;;;;;;4.60;1.45;;;;;;;26.14;33.42;101898.41;4947752;28;20064;-39
2023/06/03 10:04:46;;;;;;;4.77;1.40;;;;;;;26.11;34.05;101887.84;4953767;29;20150;-39
2023/06/03 10:07:17;;;;;;;5.00;1.40;;;;;;;26.00;33.01;101898.53;4953587;29;20051;-45
2023/06/03 10:09:47;;;;;;;4.68;1.73;;;;;;;25.82;33.45;101893.06;4953759;29;20051;-45
2023/06/03 10:12:27;;;;;;;3.05;1.40;;;;;;;25.70;32.86;101898.47;4952468;29;20508;-49
2023/06/03 10:14:56;;;;;;;5.15;1.65;;;;;;;25.53;33.04;101896.63;4950229;28;20051;-44
2023/06/03 10:17:23;;;;;;;5.97;2.15;;;;;;;25.56;32.58;101895.78;4940443;29;20162;-47
2023/06/03 10:19:50;;;;;;;5.13;1.38;;;;;;;25.42;31.96;101893.84;4953635;29;20051;-46
2023/06/03 10:22:19;;;;;;;4.03;1.48;;;;;;;25.28;31.87;101899.66;4953551;28;20066;-44
2023/06/03 10:24:48;;;;;;;6.10;1.30;;;;;;;25.15;31.99;101904.25;4952838;29;20493;-44
2023/06/03 10:27:17;;;;;;;3.90;1.30;;;;;;;25.13;32.06;101901.81;4953374;29;20039;-45
2023/06/03 10:29:45;;;;;;;3.20;1.27;;;;;;;25.01;31.92;101904.34;4945961;28;20047;-44
2023/06/03 10:32:14;;;;;;;4.80;1.08;;;;;;;24.83;32.65;101898.00;4932125;29;20095;-46
2023/06/03 10:34:42;;;;;;;6.80;1.77;;;;;;;24.61;33.11;101894.47;4952496;29;20390;-46
2023/06/03 10:37:12;;;;;;;4.63;1.95;;;;;;;24.40;32.84;101898.22;4953224;29;20043;-44
2023/06/03 10:39:41;;;;;;;6.70;1.92;;;;;;;24.04;33.72;101880.53;4952730;29;20050;-48
2023/06/03 10:42:10;;;;;;;5.57;1.80;;;;;;;23.93;34.74;101887.47;4934085;29;20110;-47
2023/06/03 10:44:38;;;;;;;8.48;1.77;;;;;;;23.77;34.52;101898.44;4952586;29;20087;-44
2023/06/03 10:47:21;;;;;;;2.50;1.30;;;;;;;23.41;34.78;101897.66;4950495;28;20378;-45
2023/06/03 10:49:56;;;;;;;4.05;1.63;;;;;;;23.09;35.13;101897.63;4951302;28;20099;-44
2023/06/03 10:52:35;;;;;;;5.43;1.58;;;;;;;22.83;35.15;101898.84;4952483;28;20390;-44
2023/06/03 10:55:35;;;;;;;4.75;1.50;;;;;;;22.52;35.34;101898.75;4952399;29;20043;-50
2023/06/03 10:58:09;;;;;;;6.28;2.13;;;;;;;22.35;35.94;101903.09;4940126;29;20047;-44
2023/06/03 11:00:56;;;;;;;6.65;1.35;;;;;;;22.04;35.71;101910.25;4934546;29;20420;-44
2023/06/03 11:03:27;;;;;;;7.57;1.90;;;;;;;21.82;36.52;101914.91;4950815;29;20446;-47
2023/06/03 11:06:25;;;;;;;5.78;1.65;;;;;;;21.66;36.80;101899.50;4952370;29;20102;-45
2023/06/03 11:09:03;;;;;;;7.75;1.45;;;;;;;21.40;37.13;101900.53;4951764;29;20047;-43
2023/06/03 11:11:41;;;;;;;2.78;1.42;;;;;;;21.35;37.05;101902.91;4952310;29;20090;-43
2023/06/03 11:14:24;;;;;;;4.68;1.85;;;;;;;21.29;36.83;101901.69;4951608;28;20367;-44
2023/06/03 11:16:58;;;;;;;3.53;1.60;;;;;;;21.17;37.25;101899.97;4951692;29;20051;-44
2023/06/03 11:19:40;;;;;;;2.88;1.48;;;;;;;21.02;37.33;101896.16;4952111;29;20073;-44
2023/06/03 11:22:07;;;;;;;6.22;1.80;;;;;;;20.86;37.46;101895.63;4949747;28;20412;-43
2023/06/03 11:24:39;;;;;;;2.20;1.15;;;;;;;20.76;37.37;101901.94;4952168;29;20508;-44
2023/06/03 11:27:18;;;;;;;4.60;1.42;;;;;;;20.69;37.02;101901.06;4951864;28;20051;-44
2023/06/03 11:29:49;;;;;;;6.07;1.88;;;;;;;20.61;36.28;101898.19;4951587;29;20053;-50
2023/06/03 11:32:17;;;;;;;5.47;1.58;;;;;;;20.57;36.61;101899.34;4951911;29;20102;-45
2023/06/03 11:34:46;;;;;;;7.82;1.92;;;;;;;20.50;36.70;101900.06;4951496;29;20054;-48
2023/06/03 11:37:17;;;;;;;5.38;1.48;;;;;;;20.44;36.72;101895.97;4950911;29;20505;-43